createdAt,value
2023-04-25T00:01:16.915Z,1.1749999999999998
2023-04-25T00:06:27.532Z,1.15
2023-04-25T00:07:18.130Z,1.1125
2023-04-25T00:11:16.126Z,1.9375
2023-04-25T00:14:18.085Z,1.1875
2023-04-25T00:17:16.564Z,1.8875
2023-04-25T00:21:16.204Z,1.3375
2023-04-25T00:24:16.565Z,1.5375
2023-04-25T00:27:16.586Z,1.3625
2023-04-25T00:31:16.467Z,2.5375
2023-04-25T00:34:16.693Z,1.8875
2023-04-25T00:37:16.940Z,1.6750000000000003
2023-04-25T00:41:17.160Z,1.6
2023-04-25T00:44:18.288Z,1.2375
2023-04-25T00:47:18.365Z,1.8125
2023-04-25T00:51:20.458Z,2.1375
2023-04-25T00:54:17.320Z,1.9875
2023-04-25T00:57:16.896Z,1.6625
2023-04-25T01:01:16.483Z,1.95
2023-04-25T01:04:16.857Z,1.4625
2023-04-25T01:07:17.371Z,1.85
2023-04-25T01:11:16.487Z,1.4000000000000001
2023-04-25T01:14:16.815Z,1.8125000000000002
2023-04-25T01:17:19.804Z,1.3875000000000002
2023-04-25T01:21:16.804Z,1.4
2023-04-25T01:24:17.062Z,1.3625
2023-04-25T01:27:17.124Z,1.35
2023-04-25T01:31:18.441Z,1.6375
2023-04-25T01:34:17.067Z,1.4249999999999998
2023-04-25T01:37:17.548Z,1.325
2023-04-25T01:41:16.614Z,1.8625
2023-04-25T01:44:16.310Z,1.2375
2023-04-25T01:47:16.146Z,2.025
2023-04-25T01:51:32.017Z,2.6125000000000003
2023-04-25T01:54:32.057Z,2.0125
2023-04-25T01:57:31.991Z,1.3
2023-04-25T02:01:16.679Z,1.775
2023-04-25T02:04:17.505Z,1.5
2023-04-25T02:07:17.079Z,1.625
2023-04-25T02:11:15.785Z,1.3
2023-04-25T02:14:16.328Z,1.3375000000000001
2023-04-25T02:17:17.181Z,1.175
2023-04-25T02:21:16.382Z,1.3499999999999999
2023-04-25T02:24:16.450Z,0.9625
2023-04-25T02:27:16.553Z,1.5375
2023-04-25T02:31:16.415Z,1.3125
2023-04-25T02:34:16.474Z,1.1749999999999998
2023-04-25T02:37:16.560Z,1.2875
2023-04-25T02:41:16.448Z,0.875
2023-04-25T02:44:16.412Z,0.8999999999999999
2023-04-25T02:47:16.612Z,0.9625
2023-04-25T02:51:17.511Z,1.0875
2023-04-25T02:54:16.731Z,0.8374999999999999
2023-04-25T02:57:16.820Z,1.225
2023-04-25T03:01:16.101Z,1.5250000000000001
2023-04-25T03:04:16.219Z,1.45
2023-04-25T03:07:16.230Z,1.2875
2023-04-25T03:11:15.894Z,1.625
2023-04-25T03:14:16.235Z,1.3625
2023-04-25T03:17:16.216Z,1.5875
2023-04-25T03:21:16.415Z,1.4
2023-04-25T03:24:16.712Z,1.4125
2023-04-25T03:27:17.117Z,1.275
2023-04-25T03:31:16.412Z,1.075
2023-04-25T03:34:16.642Z,0.9750000000000001
2023-04-25T03:37:16.572Z,1.1125
2023-04-25T03:41:16.348Z,1.5124999999999997
2023-04-25T03:44:16.519Z,1.1624999999999999
2023-04-25T03:47:16.554Z,2.0375
2023-04-25T03:51:17.005Z,1.75
2023-04-25T03:54:16.914Z,1.225
2023-04-25T03:57:16.985Z,1.3125
2023-04-25T04:01:16.707Z,0.95
2023-04-25T04:04:17.260Z,0.9500000000000001
2023-04-25T04:07:17.266Z,0.8375
2023-04-25T04:11:16.223Z,1.8124999999999998
2023-04-25T04:14:16.672Z,1.0375
2023-04-25T04:17:16.674Z,0.8375
2023-04-25T04:21:16.675Z,1.0375
2023-04-25T04:24:18.045Z,1.425
2023-04-25T04:27:19.378Z,1.4124999999999999
2023-04-25T04:31:18.201Z,1.475
2023-04-25T04:34:17.911Z,0.6875
2023-04-25T04:37:16.871Z,1.0125
2023-04-25T04:41:17.472Z,1.525
2023-04-25T04:44:17.255Z,1.0125
2023-04-25T04:47:17.378Z,1.475
2023-04-25T04:51:16.579Z,1.5625
2023-04-25T05:01:17.356Z,1.525
2023-04-25T05:11:16.539Z,1.1
2023-04-25T05:14:18.215Z,1.7374999999999998
2023-04-25T05:17:17.035Z,1.9500000000000002
2023-04-25T05:21:16.745Z,1.575
2023-04-25T05:31:16.283Z,1.8125
2023-04-25T05:34:17.886Z,1.3875000000000002
2023-04-25T05:37:16.697Z,1.5125
2023-04-25T05:41:17.268Z,1.3875000000000002
2023-04-25T05:51:16.469Z,1.9625
2023-04-25T05:54:16.626Z,1.2874999999999999
2023-04-25T05:57:22.233Z,2.4125
2023-04-25T06:01:17.094Z,2.05
2023-04-25T06:04:17.623Z,2.05
2023-04-25T06:07:17.463Z,2.3875
2023-04-25T06:11:17.036Z,2.55
2023-04-25T06:14:17.112Z,2.8
2023-04-25T06:17:17.108Z,3.1125
2023-04-25T06:21:16.416Z,1.7000000000000002
2023-04-25T06:24:16.880Z,1.6125
2023-04-25T06:27:17.166Z,1.9125
2023-04-25T06:31:16.786Z,1.825
2023-04-25T06:34:17.455Z,1.75
2023-04-25T06:37:16.949Z,2.125
2023-04-25T06:41:16.554Z,2.2375
2023-04-25T06:44:17.228Z,2.4
2023-04-25T06:47:16.983Z,3.1125
2023-04-25T06:51:15.909Z,3.0375
2023-04-25T06:54:16.463Z,1.7625
2023-04-25T06:57:16.230Z,3.5375
2023-04-25T07:01:16.829Z,2.3875
2023-04-25T07:04:17.452Z,2.8625
2023-04-25T07:07:18.275Z,2.1875
2023-04-25T07:11:16.125Z,2.3875
2023-04-25T07:14:16.538Z,2.5374999999999996
2023-04-25T07:17:17.100Z,2.0625
2023-04-25T07:21:16.263Z,3.225
2023-04-25T07:24:16.589Z,1.4500000000000002
2023-04-25T07:27:16.469Z,2.4250000000000003
2023-04-25T07:31:18.650Z,2.65
2023-04-25T07:34:17.236Z,2.1375
2023-04-25T07:37:16.885Z,2.25
2023-04-25T07:41:17.188Z,2.175
2023-04-25T07:44:17.287Z,2.05
2023-04-25T07:47:17.191Z,2.7125
2023-04-25T07:51:16.286Z,3.625
2023-04-25T07:54:17.575Z,3.1750000000000003
2023-04-25T07:57:18.087Z,3.85
2023-04-25T08:01:15.694Z,3.5125
2023-04-25T08:11:16.873Z,4.5625
2023-04-25T08:14:16.649Z,4.2625
2023-04-25T08:21:16.331Z,4.5
2023-04-25T08:24:16.601Z,3.1500000000000004
2023-04-25T08:27:17.294Z,3.3875
2023-04-25T08:41:17.962Z,3.2750000000000004
2023-04-25T08:44:17.080Z,3.1125
2023-04-25T08:47:21.267Z,3.2874999999999996
2023-04-25T08:51:23.131Z,3.4625000000000004
2023-04-25T08:54:30.754Z,3.25
2023-04-25T08:57:18.391Z,3.2874999999999996
2023-04-25T09:01:33.849Z,3.5
2023-04-25T09:04:16.417Z,2.3
2023-04-25T09:07:19.514Z,3.1125
2023-04-25T09:11:16.434Z,2.85
2023-04-25T09:14:19.279Z,3.2125000000000004
2023-04-25T09:17:18.336Z,2.3
2023-04-25T09:21:16.987Z,2.4125
2023-04-25T09:24:19.515Z,2.9875
2023-04-25T09:51:16.259Z,2.325
2023-04-25T09:54:16.511Z,2.425
2023-04-25T09:57:19.525Z,2.275
2023-04-25T10:01:16.953Z,1.975
2023-04-25T10:04:20.084Z,2.075
2023-04-25T10:07:17.945Z,1.85
2023-04-25T10:11:17.652Z,2.4000000000000004
2023-04-25T10:14:17.081Z,2.05
2023-04-25T10:17:17.418Z,2.9625
2023-04-25T10:21:17.633Z,3.0875
2023-04-25T10:24:16.883Z,2.6375
2023-04-25T10:27:15.983Z,2.0125
2023-04-25T10:31:16.403Z,2.4625
2023-04-25T10:34:16.862Z,2.7
2023-04-25T10:37:16.572Z,2.625
2023-04-25T10:41:19.064Z,2.7249999999999996
2023-04-25T10:44:16.922Z,1.7625000000000002
2023-04-25T10:47:35.332Z,1.6875
2023-04-25T10:51:19.163Z,2.5250000000000004
2023-04-25T10:54:18.122Z,1.65
2023-04-25T10:57:37.249Z,2.9125
2023-04-25T11:01:20.326Z,2.675
2023-04-25T11:04:25.339Z,4.5375
2023-04-25T11:07:26.348Z,3.2
2023-04-25T11:11:16.929Z,2.275
2023-04-25T11:14:16.617Z,2.7625
2023-04-25T11:21:17.452Z,2.6500000000000004
2023-04-25T11:24:17.007Z,3.5625
2023-04-25T11:27:17.773Z,2.6500000000000004
2023-04-25T11:31:20.114Z,3.4375
2023-04-25T11:34:18.001Z,3.525
2023-04-25T11:37:16.873Z,4.012499999999999
2023-04-25T11:41:15.993Z,4.7125
2023-04-25T11:44:17.347Z,3.225
2023-04-25T11:47:16.519Z,2.4125
2023-04-25T11:51:16.247Z,3.175
2023-04-25T11:54:16.770Z,2.425
2023-04-25T11:57:19.548Z,2.2375
2023-04-25T12:01:29.847Z,3.3
2023-04-25T12:04:18.218Z,3.1750000000000003
2023-04-25T12:07:16.216Z,2.0125
2023-04-25T12:11:21.409Z,2.1125
2023-04-25T12:14:23.015Z,2.4625000000000004
2023-04-25T12:17:17.421Z,2.6500000000000004
2023-04-25T12:21:15.716Z,2.5374999999999996
2023-04-25T12:24:17.914Z,2.4375
2023-04-25T12:27:17.530Z,2.4
2023-04-25T12:31:17.281Z,2.1750000000000003
2023-04-25T12:34:17.290Z,1.5750000000000002
2023-04-25T12:37:16.787Z,2.3
2023-04-25T12:41:16.764Z,1.775
2023-04-25T12:44:16.966Z,2.1
2023-04-25T12:47:16.840Z,1.6749999999999998
2023-04-25T12:51:16.244Z,1.65
2023-04-25T12:54:16.460Z,2.25
2023-04-25T12:57:16.688Z,1.2125
2023-04-25T13:01:16.192Z,2.0625
2023-04-25T13:04:17.509Z,1.5374999999999999
2023-04-25T13:07:17.565Z,2.3125
2023-04-25T13:11:16.098Z,1.9875
2023-04-25T13:14:16.761Z,2.5875000000000004
2023-04-25T13:17:15.813Z,1.7625
2023-04-25T13:21:15.947Z,3.9749999999999996
2023-04-25T13:24:16.719Z,2.2625
2023-04-25T13:27:16.184Z,1.6625
2023-04-25T13:31:16.233Z,3.5875
2023-04-25T13:34:16.934Z,2.8
2023-04-25T13:37:16.704Z,4.375
2023-04-25T13:41:19.639Z,2.9625000000000004
2023-04-25T13:44:16.093Z,2.75
2023-04-25T13:47:16.112Z,1.5875
2023-04-25T13:51:22.272Z,2.3
2023-04-25T13:54:21.292Z,1.775
2023-04-25T13:57:21.169Z,2.6624999999999996
2023-04-25T14:01:16.492Z,2.1625
2023-04-25T14:04:17.000Z,2.35
2023-04-25T14:07:17.901Z,1.7375
2023-04-25T14:11:15.333Z,1.725
2023-04-25T14:14:17.291Z,1.9749999999999999
2023-04-25T14:17:15.773Z,1.325
2023-04-25T14:21:15.906Z,2.575
2023-04-25T14:24:16.866Z,2.3625
2023-04-25T14:27:16.616Z,2.0875000000000004
2023-04-25T14:31:16.341Z,2.3499999999999996
2023-04-25T14:34:16.328Z,2.0875
2023-04-25T14:37:16.239Z,2.325
2023-04-25T14:41:16.556Z,3.375
2023-04-25T14:44:16.572Z,2.125
2023-04-25T14:47:17.034Z,2.25
2023-04-25T14:51:16.138Z,1.8
2023-04-25T14:54:16.524Z,2.8125
2023-04-25T14:57:16.349Z,1.825
2023-04-25T15:01:15.705Z,1.8375
2023-04-25T15:04:16.291Z,1.7000000000000002
2023-04-25T15:07:18.355Z,2.2625
2023-04-25T15:11:16.122Z,1.525
2023-04-25T15:14:17.388Z,1.5625
2023-04-25T15:17:16.571Z,1.5
2023-04-25T15:21:15.747Z,1.6375
2023-04-25T15:24:16.394Z,1.2625000000000002
2023-04-25T15:27:16.678Z,1.6625
2023-04-25T15:31:15.529Z,2.7875
2023-04-25T15:34:15.925Z,1.675
2023-04-25T15:37:16.103Z,1.5750000000000002
2023-04-25T15:41:17.471Z,1.7874999999999999
2023-04-25T15:44:16.715Z,1.4500000000000002
2023-04-25T15:47:16.667Z,1.2375
2023-04-25T15:51:17.084Z,1.1375
2023-04-25T15:54:17.486Z,1.4
2023-04-25T15:57:16.144Z,1.2125
2023-04-25T16:01:17.023Z,1.9875
2023-04-25T16:04:17.109Z,1.1749999999999998
2023-04-25T16:07:17.204Z,1.5625
2023-04-25T16:11:16.191Z,1.5125
2023-04-25T16:14:16.292Z,1.0499999999999998
2023-04-25T16:17:16.503Z,1.5750000000000002
2023-04-25T16:21:17.218Z,2.5500000000000003
2023-04-25T16:24:17.087Z,1.3625
2023-04-25T16:27:16.728Z,1.7625
2023-04-25T16:31:16.602Z,1.4125
2023-04-25T16:34:16.399Z,1.1625
2023-04-25T16:37:16.375Z,1.1375
2023-04-25T16:41:16.581Z,0.9750000000000001
2023-04-25T16:44:16.994Z,0.8625
2023-04-25T16:47:20.066Z,0.6625
2023-04-25T16:51:16.471Z,0.8250000000000001
2023-04-25T16:54:16.392Z,1.1125
2023-04-25T16:57:16.476Z,1.0499999999999998
2023-04-25T17:01:17.194Z,0.6625
2023-04-25T17:04:16.737Z,0.8500000000000001
2023-04-25T17:07:16.656Z,0.725
2023-04-25T17:11:16.332Z,0.9625
2023-04-25T17:14:16.669Z,1.1124999999999998
2023-04-25T17:17:18.634Z,0.925
2023-04-25T17:21:16.355Z,0.8625
2023-04-25T17:24:18.063Z,0.675
2023-04-25T17:27:16.501Z,0.6
2023-04-25T17:31:16.184Z,1.1125
2023-04-25T17:34:18.047Z,0.8375
2023-04-25T17:37:17.616Z,2.125
2023-04-25T17:41:17.396Z,2.2874999999999996
2023-04-25T17:44:17.092Z,2.675
2023-04-25T17:47:17.152Z,0.8
2023-04-25T17:51:16.577Z,2.0374999999999996
2023-04-25T17:54:17.277Z,1.6625
2023-04-25T17:57:17.597Z,2.0625
2023-04-25T18:01:15.682Z,1.6875
2023-04-25T18:04:16.028Z,1.0750000000000002
2023-04-25T18:07:16.641Z,1.4375
2023-04-25T18:11:15.756Z,1.6375
2023-04-25T18:14:17.111Z,1.15
2023-04-25T18:17:17.093Z,1.5375
2023-04-25T18:21:16.340Z,1.5
2023-04-25T18:24:17.798Z,1.975
2023-04-25T18:27:17.368Z,2.4375
2023-04-25T18:31:17.335Z,2.3875
2023-04-25T18:34:19.238Z,1.4875
2023-04-25T18:37:18.038Z,1.1
2023-04-25T18:41:48.356Z,1.9875
2023-04-25T18:44:20.651Z,5
2023-04-25T18:47:17.708Z,5.9
2023-04-25T18:51:18.363Z,5.775
2023-04-25T18:54:17.936Z,3.6375
2023-04-25T18:57:19.491Z,2.3125
2023-04-25T19:01:17.050Z,2.425
2023-04-25T19:04:20.747Z,2.8875
2023-04-25T19:07:17.212Z,1.975
2023-04-25T19:11:21.110Z,2.2
2023-04-25T19:14:16.386Z,1.325
2023-04-25T19:17:16.245Z,1.0875
2023-04-25T19:21:16.258Z,1.5500000000000003
2023-04-25T19:24:16.628Z,1.3
2023-04-25T19:27:16.945Z,1.3875000000000002
2023-04-25T19:31:16.323Z,1.9375
2023-04-25T19:34:16.826Z,1.7875
2023-04-25T19:37:17.055Z,2.45
2023-04-25T19:41:16.202Z,2.075
2023-04-25T19:44:16.002Z,1.65
2023-04-25T19:47:16.327Z,1.8125
2023-04-25T19:51:15.616Z,1.4375
2023-04-25T19:54:16.368Z,1.4875
2023-04-25T19:57:16.168Z,1.6875
2023-04-25T20:01:17.369Z,1.825
2023-04-25T20:04:18.216Z,1.2625
2023-04-25T20:07:16.305Z,1.4
2023-04-25T20:11:16.227Z,1.5374999999999999
2023-04-25T20:14:16.457Z,1.675
2023-04-25T20:17:16.615Z,1.45
2023-04-25T20:21:16.888Z,1.625
2023-04-25T20:24:16.772Z,1.4
2023-04-25T20:27:16.748Z,1.4125
2023-04-25T20:31:16.875Z,1.0875
2023-04-25T20:34:17.933Z,1.375
2023-04-25T20:37:16.733Z,1.575
2023-04-25T20:41:16.000Z,1.525
2023-04-25T20:44:16.127Z,1.85
2023-04-25T20:47:16.890Z,1.4625
2023-04-25T20:51:16.631Z,1.1875
2023-04-25T20:54:16.677Z,1.9625
2023-04-25T20:57:17.244Z,1.725
2023-04-25T21:01:16.589Z,1.8875000000000002
2023-04-25T21:04:17.198Z,1.1375
2023-04-25T21:07:16.803Z,1.7125
2023-04-25T21:11:15.577Z,1.6124999999999998
2023-04-25T21:14:16.548Z,1.5
2023-04-25T21:17:16.019Z,1.5125
2023-04-25T21:21:15.810Z,1.375
2023-04-25T21:24:16.391Z,3.0874999999999995
2023-04-25T21:27:17.340Z,0.9
2023-04-25T21:31:16.268Z,1.075
2023-04-25T21:34:17.281Z,1.2875
2023-04-25T21:37:16.670Z,1.375
2023-04-25T21:41:16.515Z,1.4625
2023-04-25T22:01:16.128Z,1.075
2023-04-25T22:04:16.926Z,1.3625
2023-04-25T22:07:16.578Z,1.65
2023-04-25T22:11:26.478Z,1.375
2023-04-25T22:14:26.606Z,1.2125
2023-04-25T22:17:27.789Z,1.1
2023-04-25T22:21:16.381Z,1.2750000000000001
2023-04-25T22:24:16.817Z,1.2
2023-04-25T22:27:16.788Z,1.8
2023-04-25T22:31:30.579Z,2.2
2023-04-25T22:34:30.963Z,1.125
2023-04-25T22:37:31.190Z,1.2999999999999998
2023-04-25T22:41:16.295Z,1.8875000000000002
2023-04-25T22:44:16.646Z,1.5625
2023-04-25T22:47:16.903Z,1.2999999999999998
2023-04-25T22:51:16.126Z,0.95
2023-04-25T22:54:16.348Z,0.8625
2023-04-25T22:57:16.774Z,1.3625
2023-04-25T23:01:27.938Z,1.575
2023-04-25T23:04:26.749Z,1.5625
2023-04-25T23:07:26.666Z,1.1
2023-04-25T23:11:15.828Z,1.2125
2023-04-25T23:14:16.241Z,1.225
2023-04-25T23:17:16.029Z,1.175
2023-04-25T23:31:27.192Z,1.375
2023-04-25T23:51:16.990Z,1.0125
